sensor_id;sensor_type;location;lat;lon;timestamp;temperature;humidity
77592;DHT22;66891;46.884;17.436;2023-07-31T00:00:56;17.69;93.07
77592;DHT22;66891;46.884;17.436;2023-07-31T00:03:23;17.61;92.90
77592;DHT22;66891;46.884;17.436;2023-07-31T00:05:52;17.59;93.42
77592;DHT22;66891;46.884;17.436;2023-07-31T00:08:20;17.46;93.67
77592;DHT22;66891;46.884;17.436;2023-07-31T00:10:47;17.65;94.21
77592;DHT22;66891;46.884;17.436;2023-07-31T00:13:14;17.58;93.32
77592;DHT22;66891;46.884;17.436;2023-07-31T00:15:41;17.58;94.16
77592;DHT22;66891;46.884;17.436;2023-07-31T00:18:09;17.62;93.55
77592;DHT22;66891;46.884;17.436;2023-07-31T00:20:36;17.51;93.38
77592;DHT22;66891;46.884;17.436;2023-07-31T00:23:05;17.49;94.11
77592;DHT22;66891;46.884;17.436;2023-07-31T00:25:32;17.44;93.96
77592;DHT22;66891;46.884;17.436;2023-07-31T00:27:59;17.38;93.91
77592;DHT22;66891;46.884;17.436;2023-07-31T00:30:27;17.49;94.46
77592;DHT22;66891;46.884;17.436;2023-07-31T00:32:54;17.48;94.17
77592;DHT22;66891;46.884;17.436;2023-07-31T00:35:22;17.51;94.30
77592;DHT22;66891;46.884;17.436;2023-07-31T00:37:49;17.46;94.32
77592;DHT22;66891;46.884;17.436;2023-07-31T00:40:18;17.32;94.13
77592;DHT22;66891;46.884;17.436;2023-07-31T00:42:45;17.46;94.70
77592;DHT22;66891;46.884;17.436;2023-07-31T00:45:12;17.45;93.79
77592;DHT22;66891;46.884;17.436;2023-07-31T00:47:40;17.56;93.58
77592;DHT22;66891;46.884;17.436;2023-07-31T00:50:08;17.52;93.46
77592;DHT22;66891;46.884;17.436;2023-07-31T00:52:36;17.39;93.30
77592;DHT22;66891;46.884;17.436;2023-07-31T00:55:04;17.35;93.55
77592;DHT22;66891;46.884;17.436;2023-07-31T00:57:34;17.27;93.39
77592;DHT22;66891;46.884;17.436;2023-07-31T01:00:04;17.32;93.58
77592;DHT22;66891;46.884;17.436;2023-07-31T01:02:32;17.24;92.99
77592;DHT22;66891;46.884;17.436;2023-07-31T01:05:00;17.27;94.11
77592;DHT22;66891;46.884;17.436;2023-07-31T01:07:41;17.31;93.92
77592;DHT22;66891;46.884;17.436;2023-07-31T01:10:15;17.18;93.08
77592;DHT22;66891;46.884;17.436;2023-07-31T01:12:46;17.14;93.00
77592;DHT22;66891;46.884;17.436;2023-07-31T01:15:14;17.13;93.38
77592;DHT22;66891;46.884;17.436;2023-07-31T01:17:44;17.14;93.91
77592;DHT22;66891;46.884;17.436;2023-07-31T01:20:14;17.32;93.68
77592;DHT22;66891;46.884;17.436;2023-07-31T01:23:01;17.39;92.55
77592;DHT22;66891;46.884;17.436;2023-07-31T01:26:11;17.34;92.09
77592;DHT22;66891;46.884;17.436;2023-07-31T01:28:47;17.25;92.11
77592;DHT22;66891;46.884;17.436;2023-07-31T01:31:25;17.14;92.10
77592;DHT22;66891;46.884;17.436;2023-07-31T01:33:55;17.13;91.70
77592;DHT22;66891;46.884;17.436;2023-07-31T01:36:23;17.21;91.29
77592;DHT22;66891;46.884;17.436;2023-07-31T01:38:51;17.25;90.18
77592;DHT22;66891;46.884;17.436;2023-07-31T01:41:20;17.31;90.44
77592;DHT22;66891;46.884;17.436;2023-07-31T01:43:47;17.36;90.21
77592;DHT22;66891;46.884;17.436;2023-07-31T01:46:15;17.38;89.68
77592;DHT22;66891;46.884;17.436;2023-07-31T01:48:42;17.31;90.01
77592;DHT22;66891;46.884;17.436;2023-07-31T01:51:10;17.39;90.55
77592;DHT22;66891;46.884;17.436;2023-07-31T01:53:37;17.36;89.73
77592;DHT22;66891;46.884;17.436;2023-07-31T01:56:04;17.25;90.11
77592;DHT22;66891;46.884;17.436;2023-07-31T01:58:33;16.88;90.83
77592;DHT22;66891;46.884;17.436;2023-07-31T02:01:00;16.93;90.51
77592;DHT22;66891;46.884;17.436;2023-07-31T02:03:28;16.87;89.98
77592;DHT22;66891;46.884;17.436;2023-07-31T02:05:55;16.80;90.11
77592;DHT22;66891;46.884;17.436;2023-07-31T02:08:23;16.84;90.45
77592;DHT22;66891;46.884;17.436;2023-07-31T02:10:51;16.83;90.81
77592;DHT22;66891;46.884;17.436;2023-07-31T02:13:18;16.81;90.39
77592;DHT22;66891;46.884;17.436;2023-07-31T02:15:48;16.79;91.24
77592;DHT22;66891;46.884;17.436;2023-07-31T02:18:15;16.79;90.98
77592;DHT22;66891;46.884;17.436;2023-07-31T02:20:42;16.76;91.52
77592;DHT22;66891;46.884;17.436;2023-07-31T02:23:10;16.77;91.73
77592;DHT22;66891;46.884;17.436;2023-07-31T02:25:37;16.69;91.90
77592;DHT22;66891;46.884;17.436;2023-07-31T02:28:05;16.81;91.56
77592;DHT22;66891;46.884;17.436;2023-07-31T02:30:32;16.96;90.58
77592;DHT22;66891;46.884;17.436;2023-07-31T02:33:01;16.79;90.72
77592;DHT22;66891;46.884;17.436;2023-07-31T02:35:28;16.87;90.56
77592;DHT22;66891;46.884;17.436;2023-07-31T02:37:55;16.86;90.81
77592;DHT22;66891;46.884;17.436;2023-07-31T02:40:23;16.87;91.19
77592;DHT22;66891;46.884;17.436;2023-07-31T02:42:50;16.72;91.87
77592;DHT22;66891;46.884;17.436;2023-07-31T02:45:17;16.63;91.51
77592;DHT22;66891;46.884;17.436;2023-07-31T02:47:45;16.59;91.45
77592;DHT22;66891;46.884;17.436;2023-07-31T02:50:13;16.65;91.48
77592;DHT22;66891;46.884;17.436;2023-07-31T02:52:41;16.66;91.42
77592;DHT22;66891;46.884;17.436;2023-07-31T02:55:08;16.65;91.45
77592;DHT22;66891;46.884;17.436;2023-07-31T02:57:36;16.67;91.11
77592;DHT22;66891;46.884;17.436;2023-07-31T03:00:04;16.67;91.95
77592;DHT22;66891;46.884;17.436;2023-07-31T03:02:33;16.76;91.56
77592;DHT22;66891;46.884;17.436;2023-07-31T03:05:01;16.76;92.00
77592;DHT22;66891;46.884;17.436;2023-07-31T03:07:29;16.84;91.85
77592;DHT22;66891;46.884;17.436;2023-07-31T03:09:57;16.75;91.92
77592;DHT22;66891;46.884;17.436;2023-07-31T03:12:24;16.69;92.24
77592;DHT22;66891;46.884;17.436;2023-07-31T03:14:52;16.73;91.82
77592;DHT22;66891;46.884;17.436;2023-07-31T03:17:19;16.73;92.51
77592;DHT22;66891;46.884;17.436;2023-07-31T03:19:46;16.76;92.06
77592;DHT22;66891;46.884;17.436;2023-07-31T03:22:14;16.86;92.64
77592;DHT22;66891;46.884;17.436;2023-07-31T03:24:42;16.83;92.70
77592;DHT22;66891;46.884;17.436;2023-07-31T03:27:10;16.83;91.91
77592;DHT22;66891;46.884;17.436;2023-07-31T03:29:37;16.84;92.07
77592;DHT22;66891;46.884;17.436;2023-07-31T03:32:05;16.80;91.99
77592;DHT22;66891;46.884;17.436;2023-07-31T03:34:32;16.62;92.65
77592;DHT22;66891;46.884;17.436;2023-07-31T03:37:01;16.65;93.19
77592;DHT22;66891;46.884;17.436;2023-07-31T03:39:28;16.67;92.85
77592;DHT22;66891;46.884;17.436;2023-07-31T03:41:57;16.72;92.12
77592;DHT22;66891;46.884;17.436;2023-07-31T03:44:24;16.81;91.72
77592;DHT22;66891;46.884;17.436;2023-07-31T03:46:51;16.84;91.85
77592;DHT22;66891;46.884;17.436;2023-07-31T03:49:19;16.87;91.36
77592;DHT22;66891;46.884;17.436;2023-07-31T03:51:46;16.83;91.69
77592;DHT22;66891;46.884;17.436;2023-07-31T03:54:13;16.80;91.35
77592;DHT22;66891;46.884;17.436;2023-07-31T03:56:41;16.76;91.11
77592;DHT22;66891;46.884;17.436;2023-07-31T03:59:11;16.77;91.07
77592;DHT22;66891;46.884;17.436;2023-07-31T04:01:38;16.70;91.90
77592;DHT22;66891;46.884;17.436;2023-07-31T04:04:05;16.75;91.96
77592;DHT22;66891;46.884;17.436;2023-07-31T04:06:33;16.73;91.31
77592;DHT22;66891;46.884;17.436;2023-07-31T04:09:00;16.70;91.34
77592;DHT22;66891;46.884;17.436;2023-07-31T04:11:27;16.75;91.59
77592;DHT22;66891;46.884;17.436;2023-07-31T04:13:54;16.60;92.61
77592;DHT22;66891;46.884;17.436;2023-07-31T04:16:23;16.53;92.76
77592;DHT22;66891;46.884;17.436;2023-07-31T04:18:51;16.69;92.79
77592;DHT22;66891;46.884;17.436;2023-07-31T04:21:18;16.60;92.90
77592;DHT22;66891;46.884;17.436;2023-07-31T04:23:45;16.60;93.03
77592;DHT22;66891;46.884;17.436;2023-07-31T04:26:12;16.76;92.63
77592;DHT22;66891;46.884;17.436;2023-07-31T04:28:40;16.93;92.23
77592;DHT22;66891;46.884;17.436;2023-07-31T04:31:07;16.90;92.22
77592;DHT22;66891;46.884;17.436;2023-07-31T04:33:37;16.99;92.08
77592;DHT22;66891;46.884;17.436;2023-07-31T04:36:04;17.00;92.10
77592;DHT22;66891;46.884;17.436;2023-07-31T04:38:32;17.07;91.74
77592;DHT22;66891;46.884;17.436;2023-07-31T04:40:59;17.24;89.95
77592;DHT22;66891;46.884;17.436;2023-07-31T04:43:26;17.42;88.85
77592;DHT22;66891;46.884;17.436;2023-07-31T04:45:54;17.62;88.93
77592;DHT22;66891;46.884;17.436;2023-07-31T04:48:21;17.71;87.84
77592;DHT22;66891;46.884;17.436;2023-07-31T04:50:50;17.75;87.16
77592;DHT22;66891;46.884;17.436;2023-07-31T04:53:18;17.83;86.94
77592;DHT22;66891;46.884;17.436;2023-07-31T04:55:46;17.96;88.39
77592;DHT22;66891;46.884;17.436;2023-07-31T04:58:13;17.97;86.62
77592;DHT22;66891;46.884;17.436;2023-07-31T05:00:40;18.00;86.79
77592;DHT22;66891;46.884;17.436;2023-07-31T05:03:07;18.09;86.30
77592;DHT22;66891;46.884;17.436;2023-07-31T05:05:35;18.14;86.10
77592;DHT22;66891;46.884;17.436;2023-07-31T05:08:04;18.17;86.30
77592;DHT22;66891;46.884;17.436;2023-07-31T05:10:31;18.26;85.40
77592;DHT22;66891;46.884;17.436;2023-07-31T05:12:59;18.21;85.74
77592;DHT22;66891;46.884;17.436;2023-07-31T05:15:51;18.21;85.21
77592;DHT22;66891;46.884;17.436;2023-07-31T05:18:18;18.33;85.98
77592;DHT22;66891;46.884;17.436;2023-07-31T05:20:45;18.36;84.48
77592;DHT22;66891;46.884;17.436;2023-07-31T05:23:14;18.31;85.07
77592;DHT22;66891;46.884;17.436;2023-07-31T05:25:41;18.49;81.01
77592;DHT22;66891;46.884;17.436;2023-07-31T05:28:12;18.61;82.32
77592;DHT22;66891;46.884;17.436;2023-07-31T05:30:39;18.49;82.96
77592;DHT22;66891;46.884;17.436;2023-07-31T05:33:06;18.59;80.73
77592;DHT22;66891;46.884;17.436;2023-07-31T05:35:34;18.65;81.03
77592;DHT22;66891;46.884;17.436;2023-07-31T05:38:01;18.72;79.43
77592;DHT22;66891;46.884;17.436;2023-07-31T05:40:34;18.84;79.47
77592;DHT22;66891;46.884;17.436;2023-07-31T05:43:16;18.89;78.28
77592;DHT22;66891;46.884;17.436;2023-07-31T05:45:47;18.96;78.16
77592;DHT22;66891;46.884;17.436;2023-07-31T05:48:15;18.96;78.49
77592;DHT22;66891;46.884;17.436;2023-07-31T05:50:43;19.03;77.22
77592;DHT22;66891;46.884;17.436;2023-07-31T05:53:13;19.09;77.85
77592;DHT22;66891;46.884;17.436;2023-07-31T05:55:42;19.17;77.73
77592;DHT22;66891;46.884;17.436;2023-07-31T05:58:09;19.24;77.43
77592;DHT22;66891;46.884;17.436;2023-07-31T06:00:37;19.28;78.50
77592;DHT22;66891;46.884;17.436;2023-07-31T06:03:04;19.35;76.39
77592;DHT22;66891;46.884;17.436;2023-07-31T06:05:31;19.30;77.74
77592;DHT22;66891;46.884;17.436;2023-07-31T06:07:59;19.37;74.53
77592;DHT22;66891;46.884;17.436;2023-07-31T06:10:26;19.31;75.84
77592;DHT22;66891;46.884;17.436;2023-07-31T06:12:55;19.37;75.05
77592;DHT22;66891;46.884;17.436;2023-07-31T06:15:24;19.41;75.01
77592;DHT22;66891;46.884;17.436;2023-07-31T06:17:51;19.51;74.24
77592;DHT22;66891;46.884;17.436;2023-07-31T06:20:19;19.62;73.27
77592;DHT22;66891;46.884;17.436;2023-07-31T06:22:47;19.62;73.54
77592;DHT22;66891;46.884;17.436;2023-07-31T06:25:14;19.74;72.91
77592;DHT22;66891;46.884;17.436;2023-07-31T06:27:42;19.83;71.78
77592;DHT22;66891;46.884;17.436;2023-07-31T06:30:13;19.88;72.33
77592;DHT22;66891;46.884;17.436;2023-07-31T06:32:40;19.95;71.74
77592;DHT22;66891;46.884;17.436;2023-07-31T06:35:08;20.04;72.71
77592;DHT22;66891;46.884;17.436;2023-07-31T06:37:35;20.09;72.14
77592;DHT22;66891;46.884;17.436;2023-07-31T06:40:05;20.10;72.33
77592;DHT22;66891;46.884;17.436;2023-07-31T06:42:36;20.22;71.34
77592;DHT22;66891;46.884;17.436;2023-07-31T06:45:06;20.27;71.14
77592;DHT22;66891;46.884;17.436;2023-07-31T06:47:36;20.32;68.56
77592;DHT22;66891;46.884;17.436;2023-07-31T06:50:04;20.30;68.24
77592;DHT22;66891;46.884;17.436;2023-07-31T06:52:31;20.40;68.52
77592;DHT22;66891;46.884;17.436;2023-07-31T06:55:03;20.43;67.23
77592;DHT22;66891;46.884;17.436;2023-07-31T06:57:30;20.50;66.91
77592;DHT22;66891;46.884;17.436;2023-07-31T06:59:59;20.51;67.00
77592;DHT22;66891;46.884;17.436;2023-07-31T07:02:26;20.54;67.39
77592;DHT22;66891;46.884;17.436;2023-07-31T07:04:55;20.65;66.67
77592;DHT22;66891;46.884;17.436;2023-07-31T07:07:22;20.71;66.34
77592;DHT22;66891;46.884;17.436;2023-07-31T07:09:50;20.78;65.77
77592;DHT22;66891;46.884;17.436;2023-07-31T07:12:18;20.85;65.65
77592;DHT22;66891;46.884;17.436;2023-07-31T07:14:46;20.95;65.88
77592;DHT22;66891;46.884;17.436;2023-07-31T07:17:14;20.98;67.17
77592;DHT22;66891;46.884;17.436;2023-07-31T07:19:44;20.98;65.71
77592;DHT22;66891;46.884;17.436;2023-07-31T07:22:15;21.09;66.57
77592;DHT22;66891;46.884;17.436;2023-07-31T07:24:42;21.13;65.43
77592;DHT22;66891;46.884;17.436;2023-07-31T07:27:11;21.15;64.93
77592;DHT22;66891;46.884;17.436;2023-07-31T07:29:58;21.16;64.74
77592;DHT22;66891;46.884;17.436;2023-07-31T07:32:38;21.22;64.79
77592;DHT22;66891;46.884;17.436;2023-07-31T07:35:19;21.32;64.56
77592;DHT22;66891;46.884;17.436;2023-07-31T07:37:49;21.35;65.20
77592;DHT22;66891;46.884;17.436;2023-07-31T07:40:21;21.35;63.13
77592;DHT22;66891;46.884;17.436;2023-07-31T07:42:49;21.39;63.54
77592;DHT22;66891;46.884;17.436;2023-07-31T07:45:20;21.46;64.48
77592;DHT22;66891;46.884;17.436;2023-07-31T07:50:53;21.59;62.78
77592;DHT22;66891;46.884;17.436;2023-07-31T07:53:28;21.50;63.42
77592;DHT22;66891;46.884;17.436;2023-07-31T07:56:20;21.61;63.25
77592;DHT22;66891;46.884;17.436;2023-07-31T07:58:48;21.74;63.48
77592;DHT22;66891;46.884;17.436;2023-07-31T08:01:17;21.74;60.91
77592;DHT22;66891;46.884;17.436;2023-07-31T08:03:45;21.83;61.80
77592;DHT22;66891;46.884;17.436;2023-07-31T08:06:12;21.93;61.44
77592;DHT22;66891;46.884;17.436;2023-07-31T08:08:44;21.84;61.13
77592;DHT22;66891;46.884;17.436;2023-07-31T08:11:11;21.86;62.13
77592;DHT22;66891;46.884;17.436;2023-07-31T08:13:38;21.84;61.26
77592;DHT22;66891;46.884;17.436;2023-07-31T08:16:07;22.02;62.75
77592;DHT22;66891;46.884;17.436;2023-07-31T08:22:26;22.15;62.05
77592;DHT22;66891;46.884;17.436;2023-07-31T08:24:55;22.11;61.81
77592;DHT22;66891;46.884;17.436;2023-07-31T08:27:22;22.19;63.11
77592;DHT22;66891;46.884;17.436;2023-07-31T08:29:49;22.22;62.21
77592;DHT22;66891;46.884;17.436;2023-07-31T08:32:18;22.15;61.75
77592;DHT22;66891;46.884;17.436;2023-07-31T08:34:46;22.19;61.95
77592;DHT22;66891;46.884;17.436;2023-07-31T08:37:13;22.32;61.76
77592;DHT22;66891;46.884;17.436;2023-07-31T08:39:40;22.28;62.75
77592;DHT22;66891;46.884;17.436;2023-07-31T08:42:09;22.31;61.70
77592;DHT22;66891;46.884;17.436;2023-07-31T08:44:37;22.25;62.40
77592;DHT22;66891;46.884;17.436;2023-07-31T08:47:06;22.42;63.12
77592;DHT22;66891;46.884;17.436;2023-07-31T08:49:34;22.51;62.37
77592;DHT22;66891;46.884;17.436;2023-07-31T08:52:02;22.45;62.42
77592;DHT22;66891;46.884;17.436;2023-07-31T08:54:29;22.49;62.87
77592;DHT22;66891;46.884;17.436;2023-07-31T08:56:59;22.72;63.94
77592;DHT22;66891;46.884;17.436;2023-07-31T08:59:29;22.70;63.13
77592;DHT22;66891;46.884;17.436;2023-07-31T09:01:59;22.82;62.71
77592;DHT22;66891;46.884;17.436;2023-07-31T09:04:31;22.82;63.16
77592;DHT22;66891;46.884;17.436;2023-07-31T09:07:00;22.87;63.33
77592;DHT22;66891;46.884;17.436;2023-07-31T09:09:28;22.99;63.98
77592;DHT22;66891;46.884;17.436;2023-07-31T09:11:56;23.10;62.87
77592;DHT22;66891;46.884;17.436;2023-07-31T09:14:24;23.03;62.26
77592;DHT22;66891;46.884;17.436;2023-07-31T09:16:54;23.11;63.71
77592;DHT22;66891;46.884;17.436;2023-07-31T09:19:26;23.00;63.28
77592;DHT22;66891;46.884;17.436;2023-07-31T09:21:53;23.18;62.92
77592;DHT22;66891;46.884;17.436;2023-07-31T09:24:28;23.00;62.21
77592;DHT22;66891;46.884;17.436;2023-07-31T09:26:58;23.04;63.33
77592;DHT22;66891;46.884;17.436;2023-07-31T09:29:27;23.08;64.32
77592;DHT22;66891;46.884;17.436;2023-07-31T09:31:56;23.22;62.28
77592;DHT22;66891;46.884;17.436;2023-07-31T09:34:29;23.18;63.04
77592;DHT22;66891;46.884;17.436;2023-07-31T09:37:02;23.14;62.55
77592;DHT22;66891;46.884;17.436;2023-07-31T09:39:30;23.38;64.46
77592;DHT22;66891;46.884;17.436;2023-07-31T09:41:58;23.42;63.03
77592;DHT22;66891;46.884;17.436;2023-07-31T09:44:37;23.49;62.42
77592;DHT22;66891;46.884;17.436;2023-07-31T09:47:21;23.54;63.71
77592;DHT22;66891;46.884;17.436;2023-07-31T09:49:49;23.55;62.49
77592;DHT22;66891;46.884;17.436;2023-07-31T09:52:17;23.52;62.70
77592;DHT22;66891;46.884;17.436;2023-07-31T09:54:45;23.83;62.04
77592;DHT22;66891;46.884;17.436;2023-07-31T09:57:12;23.77;61.59
77592;DHT22;66891;46.884;17.436;2023-07-31T09:59:40;23.70;61.59
77592;DHT22;66891;46.884;17.436;2023-07-31T10:02:15;23.95;61.34
77592;DHT22;66891;46.884;17.436;2023-07-31T10:04:49;24.20;62.11
77592;DHT22;66891;46.884;17.436;2023-07-31T10:07:18;24.27;60.10
77592;DHT22;66891;46.884;17.436;2023-07-31T10:09:47;24.23;60.16
77592;DHT22;66891;46.884;17.436;2023-07-31T10:12:16;24.21;60.61
77592;DHT22;66891;46.884;17.436;2023-07-31T10:14:46;24.47;61.42
77592;DHT22;66891;46.884;17.436;2023-07-31T10:17:16;24.64;60.82
77592;DHT22;66891;46.884;17.436;2023-07-31T10:19:47;24.65;60.34
77592;DHT22;66891;46.884;17.436;2023-07-31T10:22:18;24.61;59.88
77592;DHT22;66891;46.884;17.436;2023-07-31T10:24:48;24.55;58.94
77592;DHT22;66891;46.884;17.436;2023-07-31T10:27:17;24.79;59.29
77592;DHT22;66891;46.884;17.436;2023-07-31T10:29:45;24.76;59.33
77592;DHT22;66891;46.884;17.436;2023-07-31T10:32:19;24.51;59.14
77592;DHT22;66891;46.884;17.436;2023-07-31T10:34:48;24.78;59.58
77592;DHT22;66891;46.884;17.436;2023-07-31T10:37:23;24.83;58.83
77592;DHT22;66891;46.884;17.436;2023-07-31T10:39:57;24.99;57.49
77592;DHT22;66891;46.884;17.436;2023-07-31T10:42:30;24.95;57.35
77592;DHT22;66891;46.884;17.436;2023-07-31T10:44:59;25.12;57.60
77592;DHT22;66891;46.884;17.436;2023-07-31T10:47:30;25.17;55.58
77592;DHT22;66891;46.884;17.436;2023-07-31T10:50:16;25.24;55.58
77592;DHT22;66891;46.884;17.436;2023-07-31T10:52:46;25.06;54.94
77592;DHT22;66891;46.884;17.436;2023-07-31T10:55:30;25.58;57.81
77592;DHT22;66891;46.884;17.436;2023-07-31T10:58:06;25.47;56.77
77592;DHT22;66891;46.884;17.436;2023-07-31T11:00:37;25.27;55.54
77592;DHT22;66891;46.884;17.436;2023-07-31T11:03:07;25.31;55.58
77592;DHT22;66891;46.884;17.436;2023-07-31T11:05:47;25.48;55.62
77592;DHT22;66891;46.884;17.436;2023-07-31T11:08:18;25.51;54.93
77592;DHT22;66891;46.884;17.436;2023-07-31T11:10:47;25.82;54.59
77592;DHT22;66891;46.884;17.436;2023-07-31T11:13:14;26.16;54.67
77592;DHT22;66891;46.884;17.436;2023-07-31T11:15:42;26.32;54.05
77592;DHT22;66891;46.884;17.436;2023-07-31T11:18:10;26.76;54.57
77592;DHT22;66891;46.884;17.436;2023-07-31T11:20:38;27.14;53.80
77592;DHT22;66891;46.884;17.436;2023-07-31T11:23:08;26.99;52.87
77592;DHT22;66891;46.884;17.436;2023-07-31T11:25:37;26.83;53.63
77592;DHT22;66891;46.884;17.436;2023-07-31T11:28:06;26.78;53.19
77592;DHT22;66891;46.884;17.436;2023-07-31T11:30:34;27.21;52.03
77592;DHT22;66891;46.884;17.436;2023-07-31T11:33:03;27.55;52.53
77592;DHT22;66891;46.884;17.436;2023-07-31T11:35:33;27.96;52.08
77592;DHT22;66891;46.884;17.436;2023-07-31T11:38:02;28.21;50.84
77592;DHT22;66891;46.884;17.436;2023-07-31T11:40:29;28.11;50.98
77592;DHT22;66891;46.884;17.436;2023-07-31T11:43:04;27.67;52.00
77592;DHT22;66891;46.884;17.436;2023-07-31T11:45:31;27.64;51.89
77592;DHT22;66891;46.884;17.436;2023-07-31T11:51:29;27.36;51.45
77592;DHT22;66891;46.884;17.436;2023-07-31T11:53:58;27.60;51.78
77592;DHT22;66891;46.884;17.436;2023-07-31T11:56:27;27.05;52.96
77592;DHT22;66891;46.884;17.436;2023-07-31T11:58:58;27.32;51.11
77592;DHT22;66891;46.884;17.436;2023-07-31T12:01:26;28.39;49.37
77592;DHT22;66891;46.884;17.436;2023-07-31T12:03:57;28.55;48.82
77592;DHT22;66891;46.884;17.436;2023-07-31T12:06:34;28.21;49.60
77592;DHT22;66891;46.884;17.436;2023-07-31T12:09:03;28.52;50.84
77592;DHT22;66891;46.884;17.436;2023-07-31T12:11:30;27.87;50.36
77592;DHT22;66891;46.884;17.436;2023-07-31T12:13:58;27.21;51.73
77592;DHT22;66891;46.884;17.436;2023-07-31T12:16:26;27.35;50.88
77592;DHT22;66891;46.884;17.436;2023-07-31T12:18:55;28.25;49.67
77592;DHT22;66891;46.884;17.436;2023-07-31T12:21:22;27.69;51.35
77592;DHT22;66891;46.884;17.436;2023-07-31T12:23:51;28.39;50.00
77592;DHT22;66891;46.884;17.436;2023-07-31T12:26:20;29.47;49.22
77592;DHT22;66891;46.884;17.436;2023-07-31T12:28:49;29.41;47.93
77592;DHT22;66891;46.884;17.436;2023-07-31T12:31:18;29.11;48.18
77592;DHT22;66891;46.884;17.436;2023-07-31T12:33:46;29.14;48.06
77592;DHT22;66891;46.884;17.436;2023-07-31T12:36:15;30.65;46.94
77592;DHT22;66891;46.884;17.436;2023-07-31T12:38:44;30.58;48.21
77592;DHT22;66891;46.884;17.436;2023-07-31T12:41:13;29.30;48.00
77592;DHT22;66891;46.884;17.436;2023-07-31T12:44:26;28.49;51.19
77592;DHT22;66891;46.884;17.436;2023-07-31T12:46:57;28.96;51.47
77592;DHT22;66891;46.884;17.436;2023-07-31T12:49:24;29.66;47.05
77592;DHT22;66891;46.884;17.436;2023-07-31T12:51:51;29.13;49.49
77592;DHT22;66891;46.884;17.436;2023-07-31T12:54:21;29.68;47.30
77592;DHT22;66891;46.884;17.436;2023-07-31T12:56:49;29.61;48.72
77592;DHT22;66891;46.884;17.436;2023-07-31T12:59:18;29.93;47.09
77592;DHT22;66891;46.884;17.436;2023-07-31T13:01:45;30.38;47.39
77592;DHT22;66891;46.884;17.436;2023-07-31T13:04:12;30.38;47.10
77592;DHT22;66891;46.884;17.436;2023-07-31T13:06:40;30.64;46.13
77592;DHT22;66891;46.884;17.436;2023-07-31T13:09:08;30.30;46.73
77592;DHT22;66891;46.884;17.436;2023-07-31T13:11:36;29.37;47.96
77592;DHT22;66891;46.884;17.436;2023-07-31T13:14:05;28.60;50.86
77592;DHT22;66891;46.884;17.436;2023-07-31T13:16:32;27.59;51.92
77592;DHT22;66891;46.884;17.436;2023-07-31T13:19:00;27.16;52.39
77592;DHT22;66891;46.884;17.436;2023-07-31T13:21:27;27.43;53.23
77592;DHT22;66891;46.884;17.436;2023-07-31T13:23:55;26.99;53.14
77592;DHT22;66891;46.884;17.436;2023-07-31T13:26:25;26.95;53.99
77592;DHT22;66891;46.884;17.436;2023-07-31T13:28:52;27.15;53.45
77592;DHT22;66891;46.884;17.436;2023-07-31T13:31:21;26.92;55.11
77592;DHT22;66891;46.884;17.436;2023-07-31T13:33:48;27.22;54.77
77592;DHT22;66891;46.884;17.436;2023-07-31T13:36:15;27.28;52.93
77592;DHT22;66891;46.884;17.436;2023-07-31T13:38:43;26.86;54.30
77592;DHT22;66891;46.884;17.436;2023-07-31T13:41:10;26.30;54.33
77592;DHT22;66891;46.884;17.436;2023-07-31T13:43:37;26.18;55.14
77592;DHT22;66891;46.884;17.436;2023-07-31T13:46:05;26.23;55.84
77592;DHT22;66891;46.884;17.436;2023-07-31T13:48:36;26.35;55.43
77592;DHT22;66891;46.884;17.436;2023-07-31T13:51:03;26.36;57.35
77592;DHT22;66891;46.884;17.436;2023-07-31T13:53:31;26.46;56.32
77592;DHT22;66891;46.884;17.436;2023-07-31T13:55:58;26.32;54.77
77592;DHT22;66891;46.884;17.436;2023-07-31T13:58:25;26.11;56.14
77592;DHT22;66891;46.884;17.436;2023-07-31T14:00:53;26.13;56.33
77592;DHT22;66891;46.884;17.436;2023-07-31T14:03:20;26.08;56.18
77592;DHT22;66891;46.884;17.436;2023-07-31T14:05:49;26.02;56.36
77592;DHT22;66891;46.884;17.436;2023-07-31T14:08:17;26.22;57.18
77592;DHT22;66891;46.884;17.436;2023-07-31T14:10:44;25.96;57.58
77592;DHT22;66891;46.884;17.436;2023-07-31T14:13:19;26.02;57.12
77592;DHT22;66891;46.884;17.436;2023-07-31T14:15:47;26.01;58.39
77592;DHT22;66891;46.884;17.436;2023-07-31T14:18:15;26.08;58.86
77592;DHT22;66891;46.884;17.436;2023-07-31T14:20:43;25.96;56.79
77592;DHT22;66891;46.884;17.436;2023-07-31T14:23:11;26.08;59.24
77592;DHT22;66891;46.884;17.436;2023-07-31T14:25:39;26.28;60.01
77592;DHT22;66891;46.884;17.436;2023-07-31T14:28:06;26.50;56.29
77592;DHT22;66891;46.884;17.436;2023-07-31T14:30:33;26.37;56.62
77592;DHT22;66891;46.884;17.436;2023-07-31T14:33:01;26.37;57.47
77592;DHT22;66891;46.884;17.436;2023-07-31T14:35:29;26.50;59.91
77592;DHT22;66891;46.884;17.436;2023-07-31T14:37:57;26.71;57.74
77592;DHT22;66891;46.884;17.436;2023-07-31T14:40:25;26.70;59.08
77592;DHT22;66891;46.884;17.436;2023-07-31T14:42:53;26.83;57.90
77592;DHT22;66891;46.884;17.436;2023-07-31T14:45:20;27.04;56.16
77592;DHT22;66891;46.884;17.436;2023-07-31T14:47:47;26.94;57.14
77592;DHT22;66891;46.884;17.436;2023-07-31T14:50:15;27.19;57.33
77592;DHT22;66891;46.884;17.436;2023-07-31T14:52:46;27.22;57.15
77592;DHT22;66891;46.884;17.436;2023-07-31T14:55:14;27.29;57.31
77592;DHT22;66891;46.884;17.436;2023-07-31T14:57:43;26.92;57.16
77592;DHT22;66891;46.884;17.436;2023-07-31T15:00:12;26.98;58.12
77592;DHT22;66891;46.884;17.436;2023-07-31T15:02:39;27.11;58.85
77592;DHT22;66891;46.884;17.436;2023-07-31T15:05:08;26.98;56.72
77592;DHT22;66891;46.884;17.436;2023-07-31T15:07:35;26.88;57.89
77592;DHT22;66891;46.884;17.436;2023-07-31T15:10:04;26.95;59.35
77592;DHT22;66891;46.884;17.436;2023-07-31T15:12:32;26.87;58.74
77592;DHT22;66891;46.884;17.436;2023-07-31T15:15:01;26.73;59.63
77592;DHT22;66891;46.884;17.436;2023-07-31T15:17:28;26.57;60.28
77592;DHT22;66891;46.884;17.436;2023-07-31T15:19:57;26.57;59.69
77592;DHT22;66891;46.884;17.436;2023-07-31T15:22:24;26.35;61.02
77592;DHT22;66891;46.884;17.436;2023-07-31T15:24:53;26.33;62.94
77592;DHT22;66891;46.884;17.436;2023-07-31T15:27:20;26.35;62.46
77592;DHT22;66891;46.884;17.436;2023-07-31T15:29:49;26.30;61.47
77592;DHT22;66891;46.884;17.436;2023-07-31T15:32:21;26.49;61.60
77592;DHT22;66891;46.884;17.436;2023-07-31T15:34:48;26.54;61.94
77592;DHT22;66891;46.884;17.436;2023-07-31T15:37:17;26.61;60.94